sensor_id;sensor_type;location;lat;lon;timestamp;P1;durP1;ratioP1;P2;durP2;ratioP2
26690;SDS011;14307;51.718;8.938;2023-08-01T00:00:26;2.00;;;1.10;;
26690;SDS011;14307;51.718;8.938;2023-08-01T00:02:53;1.55;;;1.02;;
26690;SDS011;14307;51.718;8.938;2023-08-01T00:05:20;2.53;;;1.17;;
26690;SDS011;14307;51.718;8.938;2023-08-01T00:07:48;1.60;;;0.93;;
26690;SDS011;14307;51.718;8.938;2023-08-01T00:10:15;2.92;;;1.40;;
26690;SDS011;14307;51.718;8.938;2023-08-01T00:12:42;3.65;;;1.30;;
26690;SDS011;14307;51.718;8.938;2023-08-01T00:15:10;2.10;;;0.98;;
26690;SDS011;14307;51.718;8.938;2023-08-01T00:17:37;3.80;;;1.25;;
26690;SDS011;14307;51.718;8.938;2023-08-01T00:20:04;2.28;;;1.23;;
26690;SDS011;14307;51.718;8.938;2023-08-01T00:22:31;1.58;;;1.08;;
26690;SDS011;14307;51.718;8.938;2023-08-01T00:24:58;1.90;;;1.08;;
26690;SDS011;14307;51.718;8.938;2023-08-01T00:27:25;1.58;;;0.98;;
26690;SDS011;14307;51.718;8.938;2023-08-01T00:29:52;2.95;;;1.30;;
26690;SDS011;14307;51.718;8.938;2023-08-01T00:32:19;2.05;;;1.05;;
26690;SDS011;14307;51.718;8.938;2023-08-01T00:34:46;2.50;;;0.82;;
26690;SDS011;14307;51.718;8.938;2023-08-01T00:37:13;2.90;;;1.23;;
26690;SDS011;14307;51.718;8.938;2023-08-01T00:39:39;2.00;;;1.27;;
26690;SDS011;14307;51.718;8.938;2023-08-01T00:42:06;2.03;;;0.95;;
26690;SDS011;14307;51.718;8.938;2023-08-01T00:44:33;3.05;;;1.13;;
26690;SDS011;14307;51.718;8.938;2023-08-01T00:47:00;2.58;;;0.95;;
26690;SDS011;14307;51.718;8.938;2023-08-01T00:49:27;3.35;;;1.35;;
26690;SDS011;14307;51.718;8.938;2023-08-01T00:51:54;5.80;;;1.75;;
26690;SDS011;14307;51.718;8.938;2023-08-01T00:54:20;4.18;;;1.40;;
26690;SDS011;14307;51.718;8.938;2023-08-01T00:56:47;3.95;;;1.40;;
26690;SDS011;14307;51.718;8.938;2023-08-01T00:59:15;4.25;;;1.60;;
26690;SDS011;14307;51.718;8.938;2023-08-01T01:01:42;5.25;;;1.92;;
26690;SDS011;14307;51.718;8.938;2023-08-01T01:04:09;4.38;;;1.50;;
26690;SDS011;14307;51.718;8.938;2023-08-01T01:07:18;5.28;;;2.13;;
26690;SDS011;14307;51.718;8.938;2023-08-01T01:09:27;4.68;;;1.75;;
26690;SDS011;14307;51.718;8.938;2023-08-01T01:11:58;6.82;;;2.33;;
26690;SDS011;14307;51.718;8.938;2023-08-01T01:14:26;7.60;;;2.22;;
26690;SDS011;14307;51.718;8.938;2023-08-01T01:16:54;4.30;;;1.90;;
26690;SDS011;14307;51.718;8.938;2023-08-01T01:19:21;8.27;;;1.92;;
26690;SDS011;14307;51.718;8.938;2023-08-01T01:24:45;2.60;;;1.30;;
26690;SDS011;14307;51.718;8.938;2023-08-01T01:27:14;6.55;;;1.50;;
26690;SDS011;14307;51.718;8.938;2023-08-01T01:29:43;2.30;;;1.30;;
26690;SDS011;14307;51.718;8.938;2023-08-01T01:32:10;1.80;;;1.45;;
26690;SDS011;14307;51.718;8.938;2023-08-01T01:34:38;2.88;;;1.48;;
26690;SDS011;14307;51.718;8.938;2023-08-01T01:37:05;2.83;;;1.75;;
26690;SDS011;14307;51.718;8.938;2023-08-01T01:39:32;4.47;;;1.95;;
26690;SDS011;14307;51.718;8.938;2023-08-01T01:41:59;3.67;;;1.90;;
26690;SDS011;14307;51.718;8.938;2023-08-01T01:44:25;2.75;;;1.60;;
26690;SDS011;14307;51.718;8.938;2023-08-01T01:46:52;4.50;;;1.98;;
26690;SDS011;14307;51.718;8.938;2023-08-01T01:49:19;3.83;;;2.20;;
26690;SDS011;14307;51.718;8.938;2023-08-01T01:51:46;3.45;;;1.77;;
26690;SDS011;14307;51.718;8.938;2023-08-01T01:54:13;5.57;;;2.17;;
26690;SDS011;14307;51.718;8.938;2023-08-01T01:56:40;3.55;;;2.10;;
26690;SDS011;14307;51.718;8.938;2023-08-01T01:59:07;7.80;;;2.35;;
26690;SDS011;14307;51.718;8.938;2023-08-01T02:01:34;3.13;;;2.05;;
26690;SDS011;14307;51.718;8.938;2023-08-01T02:04:01;2.30;;;2.10;;
26690;SDS011;14307;51.718;8.938;2023-08-01T02:06:28;5.57;;;2.42;;
26690;SDS011;14307;51.718;8.938;2023-08-01T02:08:55;9.73;;;2.08;;
26690;SDS011;14307;51.718;8.938;2023-08-01T02:11:24;3.45;;;1.40;;
26690;SDS011;14307;51.718;8.938;2023-08-01T02:13:51;1.63;;;1.52;;
26690;SDS011;14307;51.718;8.938;2023-08-01T02:16:18;1.45;;;1.35;;
26690;SDS011;14307;51.718;8.938;2023-08-01T02:18:44;1.10;;;1.00;;
26690;SDS011;14307;51.718;8.938;2023-08-01T02:21:12;1.33;;;1.23;;
26690;SDS011;14307;51.718;8.938;2023-08-01T02:23:38;1.55;;;1.45;;
26690;SDS011;14307;51.718;8.938;2023-08-01T02:26:05;1.73;;;1.63;;
26690;SDS011;14307;51.718;8.938;2023-08-01T02:28:34;2.13;;;1.95;;
26690;SDS011;14307;51.718;8.938;2023-08-01T02:31:01;1.77;;;1.67;;
26690;SDS011;14307;51.718;8.938;2023-08-01T02:33:28;2.20;;;1.92;;
26690;SDS011;14307;51.718;8.938;2023-08-01T02:35:55;1.83;;;1.73;;
26690;SDS011;14307;51.718;8.938;2023-08-01T02:38:21;3.03;;;2.33;;
26690;SDS011;14307;51.718;8.938;2023-08-01T02:40:48;2.25;;;2.05;;
26690;SDS011;14307;51.718;8.938;2023-08-01T02:43:15;3.65;;;2.70;;
26690;SDS011;14307;51.718;8.938;2023-08-01T02:45:43;2.60;;;2.40;;
26690;SDS011;14307;51.718;8.938;2023-08-01T02:48:10;5.13;;;2.22;;
26690;SDS011;14307;51.718;8.938;2023-08-01T02:50:37;2.33;;;2.00;;
26690;SDS011;14307;51.718;8.938;2023-08-01T02:53:04;3.90;;;2.90;;
26690;SDS011;14307;51.718;8.938;2023-08-01T02:55:31;2.88;;;1.77;;
26690;SDS011;14307;51.718;8.938;2023-08-01T02:57:58;2.10;;;1.90;;
26690;SDS011;14307;51.718;8.938;2023-08-01T03:00:25;2.80;;;2.28;;
26690;SDS011;14307;51.718;8.938;2023-08-01T03:02:52;4.53;;;2.35;;
26690;SDS011;14307;51.718;8.938;2023-08-01T03:05:19;2.55;;;1.90;;
26690;SDS011;14307;51.718;8.938;2023-08-01T03:07:46;2.05;;;1.83;;
26690;SDS011;14307;51.718;8.938;2023-08-01T03:10:13;2.90;;;2.17;;
26690;SDS011;14307;51.718;8.938;2023-08-01T03:12:59;4.05;;;2.05;;
26690;SDS011;14307;51.718;8.938;2023-08-01T03:15:27;2.10;;;2.00;;
26690;SDS011;14307;51.718;8.938;2023-08-01T03:17:55;2.30;;;2.20;;
26690;SDS011;14307;51.718;8.938;2023-08-01T03:20:22;2.20;;;2.10;;
26690;SDS011;14307;51.718;8.938;2023-08-01T03:22:49;2.40;;;2.20;;
26690;SDS011;14307;51.718;8.938;2023-08-01T03:25:16;3.45;;;2.40;;
26690;SDS011;14307;51.718;8.938;2023-08-01T03:27:43;2.30;;;2.10;;
26690;SDS011;14307;51.718;8.938;2023-08-01T03:30:10;2.20;;;2.10;;
26690;SDS011;14307;51.718;8.938;2023-08-01T03:32:37;2.33;;;2.13;;
26690;SDS011;14307;51.718;8.938;2023-08-01T03:35:04;2.50;;;2.30;;
26690;SDS011;14307;51.718;8.938;2023-08-01T03:37:32;3.40;;;2.70;;
26690;SDS011;14307;51.718;8.938;2023-08-01T03:39:59;2.58;;;2.33;;
26690;SDS011;14307;51.718;8.938;2023-08-01T03:42:26;2.88;;;2.65;;
26690;SDS011;14307;51.718;8.938;2023-08-01T03:44:53;4.32;;;3.10;;
26690;SDS011;14307;51.718;8.938;2023-08-01T03:47:20;4.85;;;3.28;;
26690;SDS011;14307;51.718;8.938;2023-08-01T03:49:47;5.63;;;2.80;;
26690;SDS011;14307;51.718;8.938;2023-08-01T03:52:14;5.53;;;3.50;;
26690;SDS011;14307;51.718;8.938;2023-08-01T03:54:40;3.35;;;2.40;;
26690;SDS011;14307;51.718;8.938;2023-08-01T03:57:07;3.85;;;2.35;;
26690;SDS011;14307;51.718;8.938;2023-08-01T03:59:34;3.90;;;1.95;;
26690;SDS011;14307;51.718;8.938;2023-08-01T04:02:03;2.70;;;2.20;;
26690;SDS011;14307;51.718;8.938;2023-08-01T04:04:30;3.20;;;1.92;;
26690;SDS011;14307;51.718;8.938;2023-08-01T04:06:58;5.47;;;2.47;;
26690;SDS011;14307;51.718;8.938;2023-08-01T04:09:24;4.50;;;3.20;;
26690;SDS011;14307;51.718;8.938;2023-08-01T04:11:51;7.78;;;3.40;;
26690;SDS011;14307;51.718;8.938;2023-08-01T04:14:18;6.63;;;3.35;;
26690;SDS011;14307;51.718;8.938;2023-08-01T04:16:45;3.25;;;2.50;;
26690;SDS011;14307;51.718;8.938;2023-08-01T04:19:12;3.20;;;2.53;;
26690;SDS011;14307;51.718;8.938;2023-08-01T04:21:39;4.95;;;3.42;;
26690;SDS011;14307;51.718;8.938;2023-08-01T04:24:06;6.57;;;2.90;;
26690;SDS011;14307;51.718;8.938;2023-08-01T04:26:33;4.13;;;2.85;;
26690;SDS011;14307;51.718;8.938;2023-08-01T04:29:00;5.10;;;2.97;;
26690;SDS011;14307;51.718;8.938;2023-08-01T04:31:27;3.72;;;3.00;;
26690;SDS011;14307;51.718;8.938;2023-08-01T04:33:54;5.47;;;2.83;;
26690;SDS011;14307;51.718;8.938;2023-08-01T04:36:20;4.82;;;3.40;;
26690;SDS011;14307;51.718;8.938;2023-08-01T04:38:48;11.43;;;4.53;;
26690;SDS011;14307;51.718;8.938;2023-08-01T04:41:15;8.40;;;5.18;;
26690;SDS011;14307;51.718;8.938;2023-08-01T04:43:41;8.50;;;4.85;;
26690;SDS011;14307;51.718;8.938;2023-08-01T04:46:08;6.00;;;3.63;;
26690;SDS011;14307;51.718;8.938;2023-08-01T04:48:39;8.43;;;4.10;;
26690;SDS011;14307;51.718;8.938;2023-08-01T04:51:06;5.13;;;3.35;;
26690;SDS011;14307;51.718;8.938;2023-08-01T04:53:32;5.80;;;3.22;;
26690;SDS011;14307;51.718;8.938;2023-08-01T04:55:59;6.50;;;3.92;;
26690;SDS011;14307;51.718;8.938;2023-08-01T04:58:26;7.50;;;3.72;;
26690;SDS011;14307;51.718;8.938;2023-08-01T05:00:53;7.40;;;4.10;;
26690;SDS011;14307;51.718;8.938;2023-08-01T05:03:20;10.48;;;4.82;;
26690;SDS011;14307;51.718;8.938;2023-08-01T05:05:47;15.10;;;7.60;;
26690;SDS011;14307;51.718;8.938;2023-08-01T05:08:13;22.70;;;9.82;;
26690;SDS011;14307;51.718;8.938;2023-08-01T05:10:40;29.50;;;12.77;;
26690;SDS011;14307;51.718;8.938;2023-08-01T05:13:07;36.03;;;15.70;;
26690;SDS011;14307;51.718;8.938;2023-08-01T05:15:34;38.17;;;15.55;;
26690;SDS011;14307;51.718;8.938;2023-08-01T05:18:01;38.03;;;15.40;;
26690;SDS011;14307;51.718;8.938;2023-08-01T05:20:28;35.15;;;15.70;;
26690;SDS011;14307;51.718;8.938;2023-08-01T05:22:57;38.55;;;17.58;;
26690;SDS011;14307;51.718;8.938;2023-08-01T05:25:25;46.72;;;18.95;;
26690;SDS011;14307;51.718;8.938;2023-08-01T05:27:52;47.38;;;20.08;;
26690;SDS011;14307;51.718;8.938;2023-08-01T05:30:19;56.30;;;23.02;;
26690;SDS011;14307;51.718;8.938;2023-08-01T05:32:46;60.70;;;22.13;;
26690;SDS011;14307;51.718;8.938;2023-08-01T05:35:13;42.28;;;19.05;;
26690;SDS011;14307;51.718;8.938;2023-08-01T05:37:40;48.97;;;19.35;;
26690;SDS011;14307;51.718;8.938;2023-08-01T05:40:07;52.20;;;20.05;;
26690;SDS011;14307;51.718;8.938;2023-08-01T05:42:34;40.67;;;17.10;;
26690;SDS011;14307;51.718;8.938;2023-08-01T05:45:01;39.55;;;16.92;;
26690;SDS011;14307;51.718;8.938;2023-08-01T05:47:30;37.90;;;17.45;;
26690;SDS011;14307;51.718;8.938;2023-08-01T05:49:57;37.55;;;19.15;;
26690;SDS011;14307;51.718;8.938;2023-08-01T05:52:24;41.17;;;21.25;;
26690;SDS011;14307;51.718;8.938;2023-08-01T05:54:51;31.13;;;17.30;;
26690;SDS011;14307;51.718;8.938;2023-08-01T05:57:18;33.35;;;17.60;;
26690;SDS011;14307;51.718;8.938;2023-08-01T05:59:45;42.17;;;19.08;;
26690;SDS011;14307;51.718;8.938;2023-08-01T06:02:12;50.75;;;22.48;;
26690;SDS011;14307;51.718;8.938;2023-08-01T06:04:39;47.33;;;22.98;;
26690;SDS011;14307;51.718;8.938;2023-08-01T06:07:06;54.55;;;26.65;;
26690;SDS011;14307;51.718;8.938;2023-08-01T06:09:33;63.13;;;29.88;;
26690;SDS011;14307;51.718;8.938;2023-08-01T06:11:59;65.25;;;31.17;;
26690;SDS011;14307;51.718;8.938;2023-08-01T06:14:26;57.97;;;28.40;;
26690;SDS011;14307;51.718;8.938;2023-08-01T06:16:53;59.33;;;27.70;;
26690;SDS011;14307;51.718;8.938;2023-08-01T06:19:20;57.63;;;28.35;;
26690;SDS011;14307;51.718;8.938;2023-08-01T06:21:47;70.10;;;30.73;;
26690;SDS011;14307;51.718;8.938;2023-08-01T06:24:14;61.70;;;27.75;;
26690;SDS011;14307;51.718;8.938;2023-08-01T06:26:41;48.00;;;21.45;;
26690;SDS011;14307;51.718;8.938;2023-08-01T06:29:08;30.15;;;13.75;;
26690;SDS011;14307;51.718;8.938;2023-08-01T06:31:35;19.35;;;9.85;;
26690;SDS011;14307;51.718;8.938;2023-08-01T06:34:02;18.50;;;9.52;;
26690;SDS011;14307;51.718;8.938;2023-08-01T06:36:29;21.52;;;10.95;;
26690;SDS011;14307;51.718;8.938;2023-08-01T06:38:58;24.95;;;12.00;;
26690;SDS011;14307;51.718;8.938;2023-08-01T06:41:25;30.88;;;14.50;;
26690;SDS011;14307;51.718;8.938;2023-08-01T06:43:52;30.83;;;15.15;;
26690;SDS011;14307;51.718;8.938;2023-08-01T06:46:19;37.17;;;16.70;;
26690;SDS011;14307;51.718;8.938;2023-08-01T06:48:46;26.98;;;15.45;;
26690;SDS011;14307;51.718;8.938;2023-08-01T06:51:12;35.53;;;16.42;;
26690;SDS011;14307;51.718;8.938;2023-08-01T06:53:39;30.65;;;16.38;;
26690;SDS011;14307;51.718;8.938;2023-08-01T06:56:06;35.45;;;17.65;;
26690;SDS011;14307;51.718;8.938;2023-08-01T06:58:33;35.42;;;16.88;;
26690;SDS011;14307;51.718;8.938;2023-08-01T07:01:00;26.83;;;13.73;;
26690;SDS011;14307;51.718;8.938;2023-08-01T07:03:27;27.85;;;12.43;;
26690;SDS011;14307;51.718;8.938;2023-08-01T07:05:53;25.73;;;14.98;;
26690;SDS011;14307;51.718;8.938;2023-08-01T07:08:20;48.35;;;23.15;;
26690;SDS011;14307;51.718;8.938;2023-08-01T07:10:51;58.45;;;28.50;;
26690;SDS011;14307;51.718;8.938;2023-08-01T07:13:17;65.32;;;30.13;;
26690;SDS011;14307;51.718;8.938;2023-08-01T07:15:46;63.97;;;28.60;;
26690;SDS011;14307;51.718;8.938;2023-08-01T07:18:13;53.63;;;26.77;;
26690;SDS011;14307;51.718;8.938;2023-08-01T07:20:40;62.15;;;31.95;;
26690;SDS011;14307;51.718;8.938;2023-08-01T07:23:07;61.85;;;30.02;;
26690;SDS011;14307;51.718;8.938;2023-08-01T07:25:33;66.85;;;32.72;;
26690;SDS011;14307;51.718;8.938;2023-08-01T07:28:01;66.22;;;32.85;;
26690;SDS011;14307;51.718;8.938;2023-08-01T07:30:28;65.82;;;32.80;;
26690;SDS011;14307;51.718;8.938;2023-08-01T07:32:55;65.32;;;33.50;;
26690;SDS011;14307;51.718;8.938;2023-08-01T07:35:22;66.05;;;32.65;;
26690;SDS011;14307;51.718;8.938;2023-08-01T07:37:49;61.58;;;33.05;;
26690;SDS011;14307;51.718;8.938;2023-08-01T07:40:16;71.78;;;35.65;;
26690;SDS011;14307;51.718;8.938;2023-08-01T07:42:43;62.85;;;35.92;;
26690;SDS011;14307;51.718;8.938;2023-08-01T07:45:10;66.00;;;35.50;;
26690;SDS011;14307;51.718;8.938;2023-08-01T07:47:37;63.10;;;35.00;;
26690;SDS011;14307;51.718;8.938;2023-08-01T07:50:04;63.72;;;32.53;;
26690;SDS011;14307;51.718;8.938;2023-08-01T07:52:31;60.47;;;34.55;;
26690;SDS011;14307;51.718;8.938;2023-08-01T07:54:58;57.22;;;33.05;;
26690;SDS011;14307;51.718;8.938;2023-08-01T07:57:25;57.45;;;34.33;;
26690;SDS011;14307;51.718;8.938;2023-08-01T07:59:51;54.67;;;32.17;;
26690;SDS011;14307;51.718;8.938;2023-08-01T08:02:18;63.17;;;34.22;;
26690;SDS011;14307;51.718;8.938;2023-08-01T08:04:46;67.18;;;33.88;;
26690;SDS011;14307;51.718;8.938;2023-08-01T08:07:13;70.15;;;36.55;;
26690;SDS011;14307;51.718;8.938;2023-08-01T08:09:40;61.90;;;34.50;;
26690;SDS011;14307;51.718;8.938;2023-08-01T08:12:07;63.88;;;35.15;;
26690;SDS011;14307;51.718;8.938;2023-08-01T08:14:34;60.92;;;32.90;;
26690;SDS011;14307;51.718;8.938;2023-08-01T08:17:01;64.72;;;34.58;;
26690;SDS011;14307;51.718;8.938;2023-08-01T08:19:28;64.80;;;33.38;;
26690;SDS011;14307;51.718;8.938;2023-08-01T08:21:55;58.83;;;31.92;;
26690;SDS011;14307;51.718;8.938;2023-08-01T08:24:21;51.67;;;27.95;;
26690;SDS011;14307;51.718;8.938;2023-08-01T08:26:48;50.60;;;27.67;;
26690;SDS011;14307;51.718;8.938;2023-08-01T08:29:15;51.20;;;28.15;;
26690;SDS011;14307;51.718;8.938;2023-08-01T08:31:42;46.72;;;28.52;;
26690;SDS011;14307;51.718;8.938;2023-08-01T08:34:09;49.63;;;27.15;;
26690;SDS011;14307;51.718;8.938;2023-08-01T08:36:36;41.63;;;27.10;;
26690;SDS011;14307;51.718;8.938;2023-08-01T08:39:03;46.60;;;25.15;;
26690;SDS011;14307;51.718;8.938;2023-08-01T08:41:33;43.53;;;26.52;;
26690;SDS011;14307;51.718;8.938;2023-08-01T08:44:06;45.75;;;23.85;;
26690;SDS011;14307;51.718;8.938;2023-08-01T08:46:37;42.75;;;26.00;;
26690;SDS011;14307;51.718;8.938;2023-08-01T08:49:10;42.25;;;24.08;;
26690;SDS011;14307;51.718;8.938;2023-08-01T08:51:38;39.65;;;24.95;;
26690;SDS011;14307;51.718;8.938;2023-08-01T08:54:05;34.38;;;21.90;;
26690;SDS011;14307;51.718;8.938;2023-08-01T08:56:33;38.85;;;22.85;;
26690;SDS011;14307;51.718;8.938;2023-08-01T08:59:01;33.15;;;18.67;;
26690;SDS011;14307;51.718;8.938;2023-08-01T09:01:28;42.53;;;24.33;;
26690;SDS011;14307;51.718;8.938;2023-08-01T09:03:57;30.50;;;20.45;;
26690;SDS011;14307;51.718;8.938;2023-08-01T09:06:31;38.92;;;22.60;;
26690;SDS011;14307;51.718;8.938;2023-08-01T09:09:10;37.83;;;24.67;;
26690;SDS011;14307;51.718;8.938;2023-08-01T09:11:50;38.53;;;21.70;;
26690;SDS011;14307;51.718;8.938;2023-08-01T09:14:18;42.15;;;25.73;;
26690;SDS011;14307;51.718;8.938;2023-08-01T09:16:46;43.88;;;25.60;;
26690;SDS011;14307;51.718;8.938;2023-08-01T09:19:32;46.33;;;27.33;;
26690;SDS011;14307;51.718;8.938;2023-08-01T09:21:59;39.60;;;22.30;;
26690;SDS011;14307;51.718;8.938;2023-08-01T09:24:26;42.83;;;26.17;;
26690;SDS011;14307;51.718;8.938;2023-08-01T09:26:52;46.42;;;26.38;;
26690;SDS011;14307;51.718;8.938;2023-08-01T09:29:31;45.05;;;25.52;;
26690;SDS011;14307;51.718;8.938;2023-08-01T09:31:59;46.08;;;26.20;;
26690;SDS011;14307;51.718;8.938;2023-08-01T09:34:26;46.20;;;29.20;;
26690;SDS011;14307;51.718;8.938;2023-08-01T09:36:57;42.10;;;25.50;;
26690;SDS011;14307;51.718;8.938;2023-08-01T09:39:25;40.40;;;25.67;;
26690;SDS011;14307;51.718;8.938;2023-08-01T09:41:59;37.15;;;24.67;;
26690;SDS011;14307;51.718;8.938;2023-08-01T09:44:27;35.33;;;22.95;;
26690;SDS011;14307;51.718;8.938;2023-08-01T09:47:02;37.63;;;21.63;;
26690;SDS011;14307;51.718;8.938;2023-08-01T09:49:30;40.05;;;25.15;;
26690;SDS011;14307;51.718;8.938;2023-08-01T09:52:04;30.00;;;21.40;;
26690;SDS011;14307;51.718;8.938;2023-08-01T09:54:31;29.58;;;20.52;;
26690;SDS011;14307;51.718;8.938;2023-08-01T09:56:58;28.85;;;21.63;;
26690;SDS011;14307;51.718;8.938;2023-08-01T09:59:27;31.75;;;21.10;;
26690;SDS011;14307;51.718;8.938;2023-08-01T10:01:56;28.52;;;20.38;;
26690;SDS011;14307;51.718;8.938;2023-08-01T10:04:34;24.33;;;19.08;;
26690;SDS011;14307;51.718;8.938;2023-08-01T10:07:07;22.67;;;17.40;;
26690;SDS011;14307;51.718;8.938;2023-08-01T10:09:38;25.63;;;17.83;;
26690;SDS011;14307;51.718;8.938;2023-08-01T10:12:06;24.63;;;17.55;;
26690;SDS011;14307;51.718;8.938;2023-08-01T10:14:34;22.65;;;16.05;;
26690;SDS011;14307;51.718;8.938;2023-08-01T10:17:02;23.90;;;18.38;;
26690;SDS011;14307;51.718;8.938;2023-08-01T10:19:30;22.95;;;20.48;;
26690;SDS011;14307;51.718;8.938;2023-08-01T10:21:59;24.63;;;21.40;;
26690;SDS011;14307;51.718;8.938;2023-08-01T10:24:27;21.27;;;19.02;;
26690;SDS011;14307;51.718;8.938;2023-08-01T10:26:55;20.48;;;16.42;;
26690;SDS011;14307;51.718;8.938;2023-08-01T10:29:22;22.27;;;17.10;;
26690;SDS011;14307;51.718;8.938;2023-08-01T10:32:01;21.00;;;17.70;;
26690;SDS011;14307;51.718;8.938;2023-08-01T10:34:28;22.30;;;16.73;;
26690;SDS011;14307;51.718;8.938;2023-08-01T10:36:56;29.33;;;18.70;;
26690;SDS011;14307;51.718;8.938;2023-08-01T10:39:24;26.25;;;18.38;;
26690;SDS011;14307;51.718;8.938;2023-08-01T10:42:02;27.25;;;18.85;;
26690;SDS011;14307;51.718;8.938;2023-08-01T10:44:32;27.80;;;21.17;;
26690;SDS011;14307;51.718;8.938;2023-08-01T10:47:01;22.52;;;19.23;;
26690;SDS011;14307;51.718;8.938;2023-08-01T10:49:39;25.73;;;19.55;;
26690;SDS011;14307;51.718;8.938;2023-08-01T10:57:17;21.08;;;19.20;;
26690;SDS011;14307;51.718;8.938;2023-08-01T10:59:47;23.92;;;21.73;;
26690;SDS011;14307;51.718;8.938;2023-08-01T11:02:19;23.55;;;21.65;;
26690;SDS011;14307;51.718;8.938;2023-08-01T11:04:57;25.45;;;23.05;;
26690;SDS011;14307;51.718;8.938;2023-08-01T11:07:25;23.55;;;21.55;;
26690;SDS011;14307;51.718;8.938;2023-08-01T11:12:42;26.08;;;23.92;;
26690;SDS011;14307;51.718;8.938;2023-08-01T11:15:11;26.05;;;23.95;;
26690;SDS011;14307;51.718;8.938;2023-08-01T11:17:40;25.65;;;23.95;;
26690;SDS011;14307;51.718;8.938;2023-08-01T11:20:11;26.08;;;23.98;;
26690;SDS011;14307;51.718;8.938;2023-08-01T11:22:48;26.83;;;25.05;;
26690;SDS011;14307;51.718;8.938;2023-08-01T11:25:38;24.50;;;22.80;;
26690;SDS011;14307;51.718;8.938;2023-08-01T11:28:13;26.65;;;24.88;;
26690;SDS011;14307;51.718;8.938;2023-08-01T11:30:45;28.60;;;26.55;;
26690;SDS011;14307;51.718;8.938;2023-08-01T11:33:22;27.13;;;25.30;;
26690;SDS011;14307;51.718;8.938;2023-08-01T11:35:51;25.27;;;23.55;;
26690;SDS011;14307;51.718;8.938;2023-08-01T11:38:20;24.88;;;23.27;;
26690;SDS011;14307;51.718;8.938;2023-08-01T11:40:49;23.55;;;22.05;;
26690;SDS011;14307;51.718;8.938;2023-08-01T11:43:18;26.63;;;24.90;;
26690;SDS011;14307;51.718;8.938;2023-08-01T11:45:52;23.55;;;22.15;;
26690;SDS011;14307;51.718;8.938;2023-08-01T11:48:25;26.40;;;24.60;;
26690;SDS011;14307;51.718;8.938;2023-08-01T11:51:09;26.38;;;24.50;;
26690;SDS011;14307;51.718;8.938;2023-08-01T11:55:22;26.10;;;24.40;;
26690;SDS011;14307;51.718;8.938;2023-08-01T11:57:58;24.52;;;22.55;;
26690;SDS011;14307;51.718;8.938;2023-08-01T12:00:26;21.88;;;20.17;;
26690;SDS011;14307;51.718;8.938;2023-08-01T12:03:04;21.70;;;20.13;;
26690;SDS011;14307;51.718;8.938;2023-08-01T12:05:31;20.90;;;19.35;;
26690;SDS011;14307;51.718;8.938;2023-08-01T12:08:09;20.63;;;18.83;;
26690;SDS011;14307;51.718;8.938;2023-08-01T12:10:44;20.30;;;18.30;;
26690;SDS011;14307;51.718;8.938;2023-08-01T12:13:24;15.45;;;13.95;;
26690;SDS011;14307;51.718;8.938;2023-08-01T12:15:53;16.50;;;14.82;;
26690;SDS011;14307;51.718;8.938;2023-08-01T12:18:23;15.35;;;14.15;;
26690;SDS011;14307;51.718;8.938;2023-08-01T12:20:55;16.23;;;14.65;;
26690;SDS011;14307;51.718;8.938;2023-08-01T12:23:22;16.48;;;15.00;;
26690;SDS011;14307;51.718;8.938;2023-08-01T12:25:49;18.48;;;16.70;;
26690;SDS011;14307;51.718;8.938;2023-08-01T12:28:16;19.80;;;18.25;;
26690;SDS011;14307;51.718;8.938;2023-08-01T12:30:43;18.73;;;17.08;;
26690;SDS011;14307;51.718;8.938;2023-08-01T12:33:10;17.10;;;15.90;;
26690;SDS011;14307;51.718;8.938;2023-08-01T12:35:41;13.82;;;12.77;;
26690;SDS011;14307;51.718;8.938;2023-08-01T12:38:08;18.27;;;16.98;;
26690;SDS011;14307;51.718;8.938;2023-08-01T12:40:35;17.92;;;16.60;;
26690;SDS011;14307;51.718;8.938;2023-08-01T12:43:02;17.98;;;16.52;;
26690;SDS011;14307;51.718;8.938;2023-08-01T12:45:29;18.17;;;16.63;;
26690;SDS011;14307;51.718;8.938;2023-08-01T12:47:56;16.38;;;15.25;;
26690;SDS011;14307;51.718;8.938;2023-08-01T12:50:23;19.55;;;15.20;;
26690;SDS011;14307;51.718;8.938;2023-08-01T12:52:50;14.45;;;13.23;;
26690;SDS011;14307;51.718;8.938;2023-08-01T12:55:16;15.25;;;13.75;;
26690;SDS011;14307;51.718;8.938;2023-08-01T12:57:43;15.35;;;13.77;;
26690;SDS011;14307;51.718;8.938;2023-08-01T13:00:10;22.80;;;14.60;;
26690;SDS011;14307;51.718;8.938;2023-08-01T13:02:37;15.30;;;13.63;;
26690;SDS011;14307;51.718;8.938;2023-08-01T13:05:04;15.30;;;13.80;;
26690;SDS011;14307;51.718;8.938;2023-08-01T13:07:31;17.80;;;16.30;;
26690;SDS011;14307;51.718;8.938;2023-08-01T13:09:58;17.35;;;15.95;;
26690;SDS011;14307;51.718;8.938;2023-08-01T13:12:26;19.58;;;18.08;;
26690;SDS011;14307;51.718;8.938;2023-08-01T13:14:53;21.08;;;19.42;;
26690;SDS011;14307;51.718;8.938;2023-08-01T13:17:40;20.10;;;18.70;;
26690;SDS011;14307;51.718;8.938;2023-08-01T13:20:07;21.08;;;18.90;;
26690;SDS011;14307;51.718;8.938;2023-08-01T13:22:34;19.75;;;18.50;;
26690;SDS011;14307;51.718;8.938;2023-08-01T13:25:03;22.88;;;21.35;;
26690;SDS011;14307;51.718;8.938;2023-08-01T13:27:33;22.10;;;20.60;;
26690;SDS011;14307;51.718;8.938;2023-08-01T13:30:01;23.15;;;21.83;;
26690;SDS011;14307;51.718;8.938;2023-08-01T13:32:28;22.27;;;21.08;;
26690;SDS011;14307;51.718;8.938;2023-08-01T13:34:55;21.63;;;20.33;;
26690;SDS011;14307;51.718;8.938;2023-08-01T13:37:22;22.65;;;21.20;;
26690;SDS011;14307;51.718;8.938;2023-08-01T13:39:49;22.08;;;20.77;;
26690;SDS011;14307;51.718;8.938;2023-08-01T13:42:15;22.70;;;21.38;;
26690;SDS011;14307;51.718;8.938;2023-08-01T13:44:42;23.50;;;21.88;;
26690;SDS011;14307;51.718;8.938;2023-08-01T13:47:10;23.15;;;21.73;;
26690;SDS011;14307;51.718;8.938;2023-08-01T13:49:37;22.00;;;20.60;;
26690;SDS011;14307;51.718;8.938;2023-08-01T13:52:04;22.77;;;20.90;;
26690;SDS011;14307;51.718;8.938;2023-08-01T13:54:31;23.77;;;22.05;;
26690;SDS011;14307;51.718;8.938;2023-08-01T13:56:58;23.45;;;21.95;;
26690;SDS011;14307;51.718;8.938;2023-08-01T13:59:25;23.02;;;21.63;;
26690;SDS011;14307;51.718;8.938;2023-08-01T14:01:52;24.30;;;22.35;;
26690;SDS011;14307;51.718;8.938;2023-08-01T14:04:20;24.25;;;22.48;;
26690;SDS011;14307;51.718;8.938;2023-08-01T14:06:47;25.42;;;23.55;;
26690;SDS011;14307;51.718;8.938;2023-08-01T14:09:14;23.60;;;21.95;;
26690;SDS011;14307;51.718;8.938;2023-08-01T14:11:40;25.25;;;23.45;;
26690;SDS011;14307;51.718;8.938;2023-08-01T14:14:07;23.35;;;21.77;;
26690;SDS011;14307;51.718;8.938;2023-08-01T14:16:34;23.15;;;21.45;;
26690;SDS011;14307;51.718;8.938;2023-08-01T14:19:01;25.58;;;23.77;;
26690;SDS011;14307;51.718;8.938;2023-08-01T14:21:30;25.00;;;23.20;;
26690;SDS011;14307;51.718;8.938;2023-08-01T14:23:56;23.38;;;21.63;;
26690;SDS011;14307;51.718;8.938;2023-08-01T14:26:24;23.20;;;21.90;;
26690;SDS011;14307;51.718;8.938;2023-08-01T14:28:50;24.65;;;22.80;;
26690;SDS011;14307;51.718;8.938;2023-08-01T14:31:17;24.17;;;22.48;;
26690;SDS011;14307;51.718;8.938;2023-08-01T14:33:44;23.52;;;21.73;;
26690;SDS011;14307;51.718;8.938;2023-08-01T14:36:11;24.38;;;22.40;;
26690;SDS011;14307;51.718;8.938;2023-08-01T14:38:39;24.65;;;22.90;;
26690;SDS011;14307;51.718;8.938;2023-08-01T14:41:06;24.20;;;22.70;;
26690;SDS011;14307;51.718;8.938;2023-08-01T14:43:52;23.23;;;21.67;;
26690;SDS011;14307;51.718;8.938;2023-08-01T14:46:19;24.20;;;22.40;;
26690;SDS011;14307;51.718;8.938;2023-08-01T14:48:46;23.90;;;22.05;;